sensor_id;sensor_type;location;lat;lon;timestamp;temperature;humidity
21167;DHT22;10741;52.272;9.580;2022-08-01T00:00:38;19.20;99.90
21167;DHT22;10741;52.272;9.580;2022-08-01T00:03:04;19.20;99.90
21167;DHT22;10741;52.272;9.580;2022-08-01T00:05:30;19.20;99.90
21167;DHT22;10741;52.272;9.580;2022-08-01T00:07:56;19.30;99.90
21167;DHT22;10741;52.272;9.580;2022-08-01T00:10:22;19.20;99.90
21167;DHT22;10741;52.272;9.580;2022-08-01T00:12:47;19.30;99.90
21167;DHT22;10741;52.272;9.580;2022-08-01T00:15:14;19.20;99.90
21167;DHT22;10741;52.272;9.580;2022-08-01T00:17:41;19.20;99.90
21167;DHT22;10741;52.272;9.580;2022-08-01T00:20:09;19.20;99.90
21167;DHT22;10741;52.272;9.580;2022-08-01T00:22:35;19.20;99.90
21167;DHT22;10741;52.272;9.580;2022-08-01T00:25:02;19.20;99.90
21167;DHT22;10741;52.272;9.580;2022-08-01T00:27:28;19.20;99.90
21167;DHT22;10741;52.272;9.580;2022-08-01T00:29:54;19.20;99.90
21167;DHT22;10741;52.272;9.580;2022-08-01T00:32:20;19.20;99.90
21167;DHT22;10741;52.272;9.580;2022-08-01T00:34:45;19.20;99.90
21167;DHT22;10741;52.272;9.580;2022-08-01T00:37:17;19.30;99.90
21167;DHT22;10741;52.272;9.580;2022-08-01T00:39:44;19.20;99.90
21167;DHT22;10741;52.272;9.580;2022-08-01T00:42:12;19.30;99.90
21167;DHT22;10741;52.272;9.580;2022-08-01T00:44:39;19.20;99.90
21167;DHT22;10741;52.272;9.580;2022-08-01T00:47:05;19.20;99.90
21167;DHT22;10741;52.272;9.580;2022-08-01T00:49:31;19.10;99.90
21167;DHT22;10741;52.272;9.580;2022-08-01T00:51:57;19.20;99.90
21167;DHT22;10741;52.272;9.580;2022-08-01T00:54:25;19.20;99.90
21167;DHT22;10741;52.272;9.580;2022-08-01T00:56:51;19.20;99.90
21167;DHT22;10741;52.272;9.580;2022-08-01T00:59:18;19.20;99.90
21167;DHT22;10741;52.272;9.580;2022-08-01T01:01:46;19.20;99.90
21167;DHT22;10741;52.272;9.580;2022-08-01T01:04:12;19.10;99.90
21167;DHT22;10741;52.272;9.580;2022-08-01T01:09:52;19.10;99.90
21167;DHT22;10741;52.272;9.580;2022-08-01T01:13:11;19.10;99.90
21167;DHT22;10741;52.272;9.580;2022-08-01T01:15:46;19.10;99.90
21167;DHT22;10741;52.272;9.580;2022-08-01T01:18:30;19.10;99.90
21167;DHT22;10741;52.272;9.580;2022-08-01T01:24:14;19.00;99.90
21167;DHT22;10741;52.272;9.580;2022-08-01T01:27:16;19.00;99.90
21167;DHT22;10741;52.272;9.580;2022-08-01T01:29:48;19.00;99.90
21167;DHT22;10741;52.272;9.580;2022-08-01T01:32:24;19.00;99.90
21167;DHT22;10741;52.272;9.580;2022-08-01T01:34:54;19.00;99.90
21167;DHT22;10741;52.272;9.580;2022-08-01T01:37:23;19.00;99.90
21167;DHT22;10741;52.272;9.580;2022-08-01T01:39:51;19.00;99.90
21167;DHT22;10741;52.272;9.580;2022-08-01T01:42:18;19.00;99.90
21167;DHT22;10741;52.272;9.580;2022-08-01T01:44:45;19.00;99.90
21167;DHT22;10741;52.272;9.580;2022-08-01T01:47:13;19.00;99.90
21167;DHT22;10741;52.272;9.580;2022-08-01T01:49:41;19.00;99.90
21167;DHT22;10741;52.272;9.580;2022-08-01T01:52:09;19.00;99.90
21167;DHT22;10741;52.272;9.580;2022-08-01T01:54:40;19.00;99.90
21167;DHT22;10741;52.272;9.580;2022-08-01T01:57:07;18.90;99.90
21167;DHT22;10741;52.272;9.580;2022-08-01T01:59:36;19.00;99.90
21167;DHT22;10741;52.272;9.580;2022-08-01T02:02:04;19.00;99.90
21167;DHT22;10741;52.272;9.580;2022-08-01T02:04:31;19.00;99.90
21167;DHT22;10741;52.272;9.580;2022-08-01T02:06:59;19.00;99.90
21167;DHT22;10741;52.272;9.580;2022-08-01T02:09:27;19.00;99.90
21167;DHT22;10741;52.272;9.580;2022-08-01T02:11:54;19.00;99.90
21167;DHT22;10741;52.272;9.580;2022-08-01T02:14:22;18.90;99.90
21167;DHT22;10741;52.272;9.580;2022-08-01T02:16:50;18.90;99.90
21167;DHT22;10741;52.272;9.580;2022-08-01T02:19:19;18.90;99.90
21167;DHT22;10741;52.272;9.580;2022-08-01T02:21:52;18.90;99.90
21167;DHT22;10741;52.272;9.580;2022-08-01T02:24:49;18.90;99.90
21167;DHT22;10741;52.272;9.580;2022-08-01T02:27:17;18.90;99.90
21167;DHT22;10741;52.272;9.580;2022-08-01T02:30:01;18.90;99.90
21167;DHT22;10741;52.272;9.580;2022-08-01T02:32:36;18.90;99.90
21167;DHT22;10741;52.272;9.580;2022-08-01T02:35:06;18.90;99.90
21167;DHT22;10741;52.272;9.580;2022-08-01T02:37:34;18.90;99.90
21167;DHT22;10741;52.272;9.580;2022-08-01T02:40:02;18.80;99.90
21167;DHT22;10741;52.272;9.580;2022-08-01T02:42:31;18.80;99.90
21167;DHT22;10741;52.272;9.580;2022-08-01T02:44:57;18.80;99.90
21167;DHT22;10741;52.272;9.580;2022-08-01T02:47:25;18.80;99.90
21167;DHT22;10741;52.272;9.580;2022-08-01T02:49:54;18.80;99.90
21167;DHT22;10741;52.272;9.580;2022-08-01T02:52:22;18.80;99.90
21167;DHT22;10741;52.272;9.580;2022-08-01T02:54:52;18.80;99.90
21167;DHT22;10741;52.272;9.580;2022-08-01T02:57:20;18.80;99.90
21167;DHT22;10741;52.272;9.580;2022-08-01T02:59:48;18.80;99.90
21167;DHT22;10741;52.272;9.580;2022-08-01T03:02:15;18.80;99.90
21167;DHT22;10741;52.272;9.580;2022-08-01T03:04:43;18.80;99.90
21167;DHT22;10741;52.272;9.580;2022-08-01T03:07:11;18.70;99.90
21167;DHT22;10741;52.272;9.580;2022-08-01T03:09:40;18.70;99.90
21167;DHT22;10741;52.272;9.580;2022-08-01T03:12:14;18.70;99.90
21167;DHT22;10741;52.272;9.580;2022-08-01T03:14:42;18.80;99.90
21167;DHT22;10741;52.272;9.580;2022-08-01T03:17:08;18.70;99.90
21167;DHT22;10741;52.272;9.580;2022-08-01T03:19:35;18.70;99.90
21167;DHT22;10741;52.272;9.580;2022-08-01T03:22:06;18.70;99.90
21167;DHT22;10741;52.272;9.580;2022-08-01T03:24:36;18.70;99.90
21167;DHT22;10741;52.272;9.580;2022-08-01T03:27:02;18.60;99.90
21167;DHT22;10741;52.272;9.580;2022-08-01T03:29:30;18.60;99.90
21167;DHT22;10741;52.272;9.580;2022-08-01T03:31:58;18.60;99.90
21167;DHT22;10741;52.272;9.580;2022-08-01T03:34:24;18.60;99.90
21167;DHT22;10741;52.272;9.580;2022-08-01T03:36:59;18.50;99.90
21167;DHT22;10741;52.272;9.580;2022-08-01T03:39:33;18.60;99.90
21167;DHT22;10741;52.272;9.580;2022-08-01T03:42:14;18.60;99.90
21167;DHT22;10741;52.272;9.580;2022-08-01T03:44:52;18.50;99.90
21167;DHT22;10741;52.272;9.580;2022-08-01T03:47:21;18.60;99.90
21167;DHT22;10741;52.272;9.580;2022-08-01T03:49:48;18.50;99.90
21167;DHT22;10741;52.272;9.580;2022-08-01T03:52:15;18.50;99.90
21167;DHT22;10741;52.272;9.580;2022-08-01T03:54:46;18.50;99.90
21167;DHT22;10741;52.272;9.580;2022-08-01T03:57:13;18.60;99.90
21167;DHT22;10741;52.272;9.580;2022-08-01T03:59:40;18.50;99.90
21167;DHT22;10741;52.272;9.580;2022-08-01T04:02:06;18.50;99.90
21167;DHT22;10741;52.272;9.580;2022-08-01T04:04:33;18.50;99.90
21167;DHT22;10741;52.272;9.580;2022-08-01T04:06:59;18.50;99.90
21167;DHT22;10741;52.272;9.580;2022-08-01T04:09:30;18.50;99.90
21167;DHT22;10741;52.272;9.580;2022-08-01T04:11:58;18.50;99.90
21167;DHT22;10741;52.272;9.580;2022-08-01T04:14:26;18.50;99.90
21167;DHT22;10741;52.272;9.580;2022-08-01T04:16:52;18.50;99.90
21167;DHT22;10741;52.272;9.580;2022-08-01T04:19:17;18.50;99.90
21167;DHT22;10741;52.272;9.580;2022-08-01T04:21:43;18.50;99.90
21167;DHT22;10741;52.272;9.580;2022-08-01T04:24:13;18.50;99.90
21167;DHT22;10741;52.272;9.580;2022-08-01T04:26:40;18.60;99.90
21167;DHT22;10741;52.272;9.580;2022-08-01T04:29:09;18.60;99.90
21167;DHT22;10741;52.272;9.580;2022-08-01T04:31:37;18.70;99.90
21167;DHT22;10741;52.272;9.580;2022-08-01T04:34:06;18.70;99.90
21167;DHT22;10741;52.272;9.580;2022-08-01T04:36:34;18.70;99.90
21167;DHT22;10741;52.272;9.580;2022-08-01T04:39:02;18.70;99.90
21167;DHT22;10741;52.272;9.580;2022-08-01T04:41:30;18.70;99.90
21167;DHT22;10741;52.272;9.580;2022-08-01T04:43:57;18.70;99.90
21167;DHT22;10741;52.272;9.580;2022-08-01T04:46:25;18.70;99.90
21167;DHT22;10741;52.272;9.580;2022-08-01T04:48:51;18.70;99.90
21167;DHT22;10741;52.272;9.580;2022-08-01T04:51:20;18.60;99.90
21167;DHT22;10741;52.272;9.580;2022-08-01T04:53:48;18.60;99.90
21167;DHT22;10741;52.272;9.580;2022-08-01T04:56:14;18.60;99.90
21167;DHT22;10741;52.272;9.580;2022-08-01T04:58:41;18.60;99.90
21167;DHT22;10741;52.272;9.580;2022-08-01T05:01:08;18.60;99.90
21167;DHT22;10741;52.272;9.580;2022-08-01T05:03:33;18.60;99.90
21167;DHT22;10741;52.272;9.580;2022-08-01T05:05:59;18.60;99.90
21167;DHT22;10741;52.272;9.580;2022-08-01T05:08:25;18.60;99.90
21167;DHT22;10741;52.272;9.580;2022-08-01T05:10:51;18.60;99.90
21167;DHT22;10741;52.272;9.580;2022-08-01T05:13:18;18.60;99.90
21167;DHT22;10741;52.272;9.580;2022-08-01T05:15:44;18.60;99.90
21167;DHT22;10741;52.272;9.580;2022-08-01T05:18:10;18.60;99.90
21167;DHT22;10741;52.272;9.580;2022-08-01T05:20:36;18.60;99.90
21167;DHT22;10741;52.272;9.580;2022-08-01T05:23:03;18.60;99.90
21167;DHT22;10741;52.272;9.580;2022-08-01T05:25:29;18.60;99.90
21167;DHT22;10741;52.272;9.580;2022-08-01T05:27:55;18.60;99.90
21167;DHT22;10741;52.272;9.580;2022-08-01T05:30:20;18.70;99.90
21167;DHT22;10741;52.272;9.580;2022-08-01T05:32:46;18.70;99.90
21167;DHT22;10741;52.272;9.580;2022-08-01T05:35:12;18.80;99.90
21167;DHT22;10741;52.272;9.580;2022-08-01T05:37:38;18.80;99.90
21167;DHT22;10741;52.272;9.580;2022-08-01T05:40:04;18.90;99.90
21167;DHT22;10741;52.272;9.580;2022-08-01T05:42:30;19.00;99.90
21167;DHT22;10741;52.272;9.580;2022-08-01T05:44:56;19.00;99.90
21167;DHT22;10741;52.272;9.580;2022-08-01T05:47:22;19.00;99.90
21167;DHT22;10741;52.272;9.580;2022-08-01T05:49:48;19.10;99.90
21167;DHT22;10741;52.272;9.580;2022-08-01T05:52:14;19.10;99.90
21167;DHT22;10741;52.272;9.580;2022-08-01T05:54:40;19.20;99.90
21167;DHT22;10741;52.272;9.580;2022-08-01T05:57:07;19.20;99.90
21167;DHT22;10741;52.272;9.580;2022-08-01T05:59:32;19.20;99.90
21167;DHT22;10741;52.272;9.580;2022-08-01T06:01:59;19.20;99.90
21167;DHT22;10741;52.272;9.580;2022-08-01T06:04:25;19.10;99.90
21167;DHT22;10741;52.272;9.580;2022-08-01T06:06:51;18.80;99.90
21167;DHT22;10741;52.272;9.580;2022-08-01T06:09:17;19.20;99.90
21167;DHT22;10741;52.272;9.580;2022-08-01T06:11:43;19.20;99.90
21167;DHT22;10741;52.272;9.580;2022-08-01T06:14:08;19.30;99.90
21167;DHT22;10741;52.272;9.580;2022-08-01T06:16:34;19.30;99.90
21167;DHT22;10741;52.272;9.580;2022-08-01T06:19:00;19.30;99.90
21167;DHT22;10741;52.272;9.580;2022-08-01T06:21:26;19.30;99.90
21167;DHT22;10741;52.272;9.580;2022-08-01T06:23:52;19.30;99.90
21167;DHT22;10741;52.272;9.580;2022-08-01T06:26:20;19.30;99.90
21167;DHT22;10741;52.272;9.580;2022-08-01T06:28:46;19.20;99.90
21167;DHT22;10741;52.272;9.580;2022-08-01T06:31:12;19.20;99.90
21167;DHT22;10741;52.272;9.580;2022-08-01T06:33:39;19.30;99.90
21167;DHT22;10741;52.272;9.580;2022-08-01T06:36:27;19.20;99.90
21167;DHT22;10741;52.272;9.580;2022-08-01T06:38:52;19.20;99.90
21167;DHT22;10741;52.272;9.580;2022-08-01T06:41:18;19.30;99.90
21167;DHT22;10741;52.272;9.580;2022-08-01T06:43:44;19.30;99.90
21167;DHT22;10741;52.272;9.580;2022-08-01T06:46:09;19.30;99.90
21167;DHT22;10741;52.272;9.580;2022-08-01T06:48:35;19.20;99.90
21167;DHT22;10741;52.272;9.580;2022-08-01T06:51:04;19.10;99.90
21167;DHT22;10741;52.272;9.580;2022-08-01T06:53:36;18.90;99.90
21167;DHT22;10741;52.272;9.580;2022-08-01T06:56:02;18.60;99.90
21167;DHT22;10741;52.272;9.580;2022-08-01T06:58:28;18.50;99.90
21167;DHT22;10741;52.272;9.580;2022-08-01T07:00:54;18.50;99.90
21167;DHT22;10741;52.272;9.580;2022-08-01T07:03:20;18.60;99.90
21167;DHT22;10741;52.272;9.580;2022-08-01T07:05:46;18.70;99.90
21167;DHT22;10741;52.272;9.580;2022-08-01T07:08:11;18.70;99.90
21167;DHT22;10741;52.272;9.580;2022-08-01T07:10:37;18.80;99.90
21167;DHT22;10741;52.272;9.580;2022-08-01T07:13:03;18.90;99.90
21167;DHT22;10741;52.272;9.580;2022-08-01T07:15:28;18.90;99.90
21167;DHT22;10741;52.272;9.580;2022-08-01T07:25:30;18.90;99.90
21167;DHT22;10741;52.272;9.580;2022-08-01T07:27:55;18.90;99.90
21167;DHT22;10741;52.272;9.580;2022-08-01T07:30:21;18.90;99.90
21167;DHT22;10741;52.272;9.580;2022-08-01T07:32:47;18.90;99.90
21167;DHT22;10741;52.272;9.580;2022-08-01T07:35:13;18.90;99.90
21167;DHT22;10741;52.272;9.580;2022-08-01T07:37:39;18.90;99.90
21167;DHT22;10741;52.272;9.580;2022-08-01T07:40:05;19.00;99.90
21167;DHT22;10741;52.272;9.580;2022-08-01T07:42:31;19.20;99.90
21167;DHT22;10741;52.272;9.580;2022-08-01T07:44:57;19.20;99.90
21167;DHT22;10741;52.272;9.580;2022-08-01T07:47:24;19.30;99.90
21167;DHT22;10741;52.272;9.580;2022-08-01T07:49:50;19.30;99.90
21167;DHT22;10741;52.272;9.580;2022-08-01T07:52:16;19.30;99.90
21167;DHT22;10741;52.272;9.580;2022-08-01T07:54:42;19.30;99.90
21167;DHT22;10741;52.272;9.580;2022-08-01T07:57:08;19.30;99.90
21167;DHT22;10741;52.272;9.580;2022-08-01T07:59:34;19.30;99.90
21167;DHT22;10741;52.272;9.580;2022-08-01T08:02:00;19.30;99.90
21167;DHT22;10741;52.272;9.580;2022-08-01T08:04:27;19.30;99.90
21167;DHT22;10741;52.272;9.580;2022-08-01T08:06:53;19.20;99.90
21167;DHT22;10741;52.272;9.580;2022-08-01T08:09:19;19.30;99.90
21167;DHT22;10741;52.272;9.580;2022-08-01T08:11:45;19.30;99.90
21167;DHT22;10741;52.272;9.580;2022-08-01T08:14:11;19.20;99.90
21167;DHT22;10741;52.272;9.580;2022-08-01T08:16:38;19.30;99.90
21167;DHT22;10741;52.272;9.580;2022-08-01T08:19:04;19.30;99.90
21167;DHT22;10741;52.272;9.580;2022-08-01T08:21:30;19.30;99.90
21167;DHT22;10741;52.272;9.580;2022-08-01T08:23:56;19.30;99.90
21167;DHT22;10741;52.272;9.580;2022-08-01T08:26:40;19.30;99.90
21167;DHT22;10741;52.272;9.580;2022-08-01T08:29:06;19.20;99.90
21167;DHT22;10741;52.272;9.580;2022-08-01T08:31:32;19.20;99.90
21167;DHT22;10741;52.272;9.580;2022-08-01T08:33:58;19.20;99.90
21167;DHT22;10741;52.272;9.580;2022-08-01T08:36:24;19.20;99.90
21167;DHT22;10741;52.272;9.580;2022-08-01T08:38:50;19.30;99.90
21167;DHT22;10741;52.272;9.580;2022-08-01T08:41:16;19.40;99.90
21167;DHT22;10741;52.272;9.580;2022-08-01T08:43:41;19.40;99.90
21167;DHT22;10741;52.272;9.580;2022-08-01T08:46:08;19.50;99.90
21167;DHT22;10741;52.272;9.580;2022-08-01T08:48:35;19.50;99.90
21167;DHT22;10741;52.272;9.580;2022-08-01T08:51:02;19.60;99.90
21167;DHT22;10741;52.272;9.580;2022-08-01T08:53:28;19.70;99.90
21167;DHT22;10741;52.272;9.580;2022-08-01T08:55:57;19.70;99.90
21167;DHT22;10741;52.272;9.580;2022-08-01T08:58:25;19.70;99.90
21167;DHT22;10741;52.272;9.580;2022-08-01T09:00:55;19.80;99.90
21167;DHT22;10741;52.272;9.580;2022-08-01T09:03:21;20.00;99.90
21167;DHT22;10741;52.272;9.580;2022-08-01T09:05:47;20.10;99.90
21167;DHT22;10741;52.272;9.580;2022-08-01T09:08:13;20.10;99.90
21167;DHT22;10741;52.272;9.580;2022-08-01T09:10:39;20.10;99.90
21167;DHT22;10741;52.272;9.580;2022-08-01T09:13:13;20.10;99.90
21167;DHT22;10741;52.272;9.580;2022-08-01T09:15:47;20.20;99.90
21167;DHT22;10741;52.272;9.580;2022-08-01T09:23:51;20.10;99.90
21167;DHT22;10741;52.272;9.580;2022-08-01T09:26:35;19.90;99.90
21167;DHT22;10741;52.272;9.580;2022-08-01T09:29:04;19.70;99.90
21167;DHT22;10741;52.272;9.580;2022-08-01T09:31:43;19.70;99.90
21167;DHT22;10741;52.272;9.580;2022-08-01T09:34:11;19.70;99.90
21167;DHT22;10741;52.272;9.580;2022-08-01T09:36:54;19.70;99.90
21167;DHT22;10741;52.272;9.580;2022-08-01T09:39:27;19.70;99.90
21167;DHT22;10741;52.272;9.580;2022-08-01T09:41:55;19.70;99.90
21167;DHT22;10741;52.272;9.580;2022-08-01T09:44:37;19.80;99.90
21167;DHT22;10741;52.272;9.580;2022-08-01T09:47:03;19.90;99.90
21167;DHT22;10741;52.272;9.580;2022-08-01T09:49:32;20.00;99.90
21167;DHT22;10741;52.272;9.580;2022-08-01T09:51:59;20.10;99.90
21167;DHT22;10741;52.272;9.580;2022-08-01T09:54:35;20.30;99.90
21167;DHT22;10741;52.272;9.580;2022-08-01T09:57:09;20.40;99.90
21167;DHT22;10741;52.272;9.580;2022-08-01T09:59:39;20.40;99.90
21167;DHT22;10741;52.272;9.580;2022-08-01T10:02:08;20.50;99.90
21167;DHT22;10741;52.272;9.580;2022-08-01T10:04:36;20.40;99.90
21167;DHT22;10741;52.272;9.580;2022-08-01T10:07:06;20.30;99.90
21167;DHT22;10741;52.272;9.580;2022-08-01T10:09:36;20.20;99.90
21167;DHT22;10741;52.272;9.580;2022-08-01T10:12:03;20.10;99.90
21167;DHT22;10741;52.272;9.580;2022-08-01T10:14:30;20.00;99.90
21167;DHT22;10741;52.272;9.580;2022-08-01T10:16:58;20.00;99.90
21167;DHT22;10741;52.272;9.580;2022-08-01T10:19:26;19.90;99.90
21167;DHT22;10741;52.272;9.580;2022-08-01T10:21:54;20.10;99.90
21167;DHT22;10741;52.272;9.580;2022-08-01T10:24:22;20.30;99.90
21167;DHT22;10741;52.272;9.580;2022-08-01T10:26:52;20.50;99.90
21167;DHT22;10741;52.272;9.580;2022-08-01T10:29:21;20.80;99.90
21167;DHT22;10741;52.272;9.580;2022-08-01T10:31:48;20.80;99.90
21167;DHT22;10741;52.272;9.580;2022-08-01T10:34:15;20.70;99.90
21167;DHT22;10741;52.272;9.580;2022-08-01T10:36:46;20.50;99.90
21167;DHT22;10741;52.272;9.580;2022-08-01T10:39:12;20.40;99.90
21167;DHT22;10741;52.272;9.580;2022-08-01T10:41:39;20.30;99.90
21167;DHT22;10741;52.272;9.580;2022-08-01T10:44:07;20.20;99.90
21167;DHT22;10741;52.272;9.580;2022-08-01T10:46:37;20.10;99.90
21167;DHT22;10741;52.272;9.580;2022-08-01T10:49:16;20.20;99.90
21167;DHT22;10741;52.272;9.580;2022-08-01T10:51:43;20.10;99.90
21167;DHT22;10741;52.272;9.580;2022-08-01T10:54:12;20.20;99.90
21167;DHT22;10741;52.272;9.580;2022-08-01T10:59:05;20.30;99.90
21167;DHT22;10741;52.272;9.580;2022-08-01T11:01:31;20.50;99.90
21167;DHT22;10741;52.272;9.580;2022-08-01T11:04:04;20.80;99.90
21167;DHT22;10741;52.272;9.580;2022-08-01T11:09:19;21.40;99.90
21167;DHT22;10741;52.272;9.580;2022-08-01T11:12:10;21.60;99.90
21167;DHT22;10741;52.272;9.580;2022-08-01T11:20:14;21.50;99.90
21167;DHT22;10741;52.272;9.580;2022-08-01T11:30:40;20.80;99.90
21167;DHT22;10741;52.272;9.580;2022-08-01T11:33:06;20.80;99.90
21167;DHT22;10741;52.272;9.580;2022-08-01T11:35:32;20.70;99.90
21167;DHT22;10741;52.272;9.580;2022-08-01T11:38:25;20.90;99.90
21167;DHT22;10741;52.272;9.580;2022-08-01T11:52:07;21.70;99.90
21167;DHT22;10741;52.272;9.580;2022-08-01T11:54:38;21.80;99.90
21167;DHT22;10741;52.272;9.580;2022-08-01T11:57:09;21.90;99.90
21167;DHT22;10741;52.272;9.580;2022-08-01T11:59:39;22.20;99.90
21167;DHT22;10741;52.272;9.580;2022-08-01T12:02:19;22.40;99.90
21167;DHT22;10741;52.272;9.580;2022-08-01T12:04:50;22.50;99.90
21167;DHT22;10741;52.272;9.580;2022-08-01T12:07:18;22.40;99.90
21167;DHT22;10741;52.272;9.580;2022-08-01T12:09:44;22.40;99.90
21167;DHT22;10741;52.272;9.580;2022-08-01T12:12:15;22.50;99.90
21167;DHT22;10741;52.272;9.580;2022-08-01T12:14:42;22.50;99.90
21167;DHT22;10741;52.272;9.580;2022-08-01T12:17:08;22.50;99.90
21167;DHT22;10741;52.272;9.580;2022-08-01T12:19:34;22.40;99.90
21167;DHT22;10741;52.272;9.580;2022-08-01T12:22:14;22.50;99.90
21167;DHT22;10741;52.272;9.580;2022-08-01T12:24:42;22.40;99.90
21167;DHT22;10741;52.272;9.580;2022-08-01T12:27:09;22.30;99.90
21167;DHT22;10741;52.272;9.580;2022-08-01T12:32:02;22.20;99.90
21167;DHT22;10741;52.272;9.580;2022-08-01T12:34:29;22.50;99.90
21167;DHT22;10741;52.272;9.580;2022-08-01T12:37:00;22.80;99.90
21167;DHT22;10741;52.272;9.580;2022-08-01T12:39:31;23.00;99.90
21167;DHT22;10741;52.272;9.580;2022-08-01T12:41:56;23.20;99.90
21167;DHT22;10741;52.272;9.580;2022-08-01T12:44:22;23.20;99.90
21167;DHT22;10741;52.272;9.580;2022-08-01T12:46:48;23.30;99.90
21167;DHT22;10741;52.272;9.580;2022-08-01T12:49:14;23.50;99.90
21167;DHT22;10741;52.272;9.580;2022-08-01T12:51:40;23.60;99.90
21167;DHT22;10741;52.272;9.580;2022-08-01T12:54:06;23.50;99.90
21167;DHT22;10741;52.272;9.580;2022-08-01T12:56:35;23.30;99.90
21167;DHT22;10741;52.272;9.580;2022-08-01T12:59:01;23.60;99.90
21167;DHT22;10741;52.272;9.580;2022-08-01T13:01:28;23.60;99.90
21167;DHT22;10741;52.272;9.580;2022-08-01T13:04:02;23.90;99.90
21167;DHT22;10741;52.272;9.580;2022-08-01T13:06:30;24.30;99.90
21167;DHT22;10741;52.272;9.580;2022-08-01T13:09:07;24.50;99.90
21167;DHT22;10741;52.272;9.580;2022-08-01T13:11:34;24.70;99.90
21167;DHT22;10741;52.272;9.580;2022-08-01T13:14:00;24.80;99.90
21167;DHT22;10741;52.272;9.580;2022-08-01T13:16:26;24.50;99.90
21167;DHT22;10741;52.272;9.580;2022-08-01T13:18:54;24.50;99.90
21167;DHT22;10741;52.272;9.580;2022-08-01T13:21:26;24.80;99.90
21167;DHT22;10741;52.272;9.580;2022-08-01T13:24:09;24.50;99.90
21167;DHT22;10741;52.272;9.580;2022-08-01T13:26:52;24.30;99.90
21167;DHT22;10741;52.272;9.580;2022-08-01T13:29:38;24.20;99.90
21167;DHT22;10741;52.272;9.580;2022-08-01T13:32:19;24.10;99.90
21167;DHT22;10741;52.272;9.580;2022-08-01T13:34:45;23.90;99.90
21167;DHT22;10741;52.272;9.580;2022-08-01T13:37:10;23.90;99.90
21167;DHT22;10741;52.272;9.580;2022-08-01T13:39:36;24.10;99.90
21167;DHT22;10741;52.272;9.580;2022-08-01T13:42:14;24.30;99.90
21167;DHT22;10741;52.272;9.580;2022-08-01T13:44:41;24.50;99.90
21167;DHT22;10741;52.272;9.580;2022-08-01T13:47:07;24.80;99.90
21167;DHT22;10741;52.272;9.580;2022-08-01T13:49:33;25.10;99.70
21167;DHT22;10741;52.272;9.580;2022-08-01T13:52:00;25.10;99.90
21167;DHT22;10741;52.272;9.580;2022-08-01T13:54:26;24.90;99.90
21167;DHT22;10741;52.272;9.580;2022-08-01T13:56:53;25.10;99.90
21167;DHT22;10741;52.272;9.580;2022-08-01T13:59:19;25.40;99.90
21167;DHT22;10741;52.272;9.580;2022-08-01T14:01:45;25.50;99.90
21167;DHT22;10741;52.272;9.580;2022-08-01T14:04:11;25.00;99.90
21167;DHT22;10741;52.272;9.580;2022-08-01T14:06:37;24.70;99.90
21167;DHT22;10741;52.272;9.580;2022-08-01T14:09:04;24.60;99.90
21167;DHT22;10741;52.272;9.580;2022-08-01T14:11:30;24.30;99.90
21167;DHT22;10741;52.272;9.580;2022-08-01T14:13:56;23.90;99.90
21167;DHT22;10741;52.272;9.580;2022-08-01T14:16:24;23.80;99.90
21167;DHT22;10741;52.272;9.580;2022-08-01T14:18:50;23.60;99.90
21167;DHT22;10741;52.272;9.580;2022-08-01T14:21:16;23.60;99.90
21167;DHT22;10741;52.272;9.580;2022-08-01T14:23:42;23.40;99.90
21167;DHT22;10741;52.272;9.580;2022-08-01T14:26:09;23.20;99.90
21167;DHT22;10741;52.272;9.580;2022-08-01T14:28:35;23.40;99.90
21167;DHT22;10741;52.272;9.580;2022-08-01T14:31:01;23.60;99.90
21167;DHT22;10741;52.272;9.580;2022-08-01T14:33:27;23.60;99.90
21167;DHT22;10741;52.272;9.580;2022-08-01T14:35:54;23.60;99.90
21167;DHT22;10741;52.272;9.580;2022-08-01T14:38:20;23.70;99.90
21167;DHT22;10741;52.272;9.580;2022-08-01T14:40:46;23.50;99.90
21167;DHT22;10741;52.272;9.580;2022-08-01T14:43:17;23.60;99.90
21167;DHT22;10741;52.272;9.580;2022-08-01T14:45:43;23.40;99.90
21167;DHT22;10741;52.272;9.580;2022-08-01T14:48:09;23.30;99.90
21167;DHT22;10741;52.272;9.580;2022-08-01T14:50:34;23.30;99.90
21167;DHT22;10741;52.272;9.580;2022-08-01T14:53:00;23.10;99.90
21167;DHT22;10741;52.272;9.580;2022-08-01T14:55:26;23.00;99.90
21167;DHT22;10741;52.272;9.580;2022-08-01T14:57:52;22.90;99.90
21167;DHT22;10741;52.272;9.580;2022-08-01T15:00:18;22.90;99.90
21167;DHT22;10741;52.272;9.580;2022-08-01T15:02:45;22.80;99.90
21167;DHT22;10741;52.272;9.580;2022-08-01T15:05:11;22.80;99.90
21167;DHT22;10741;52.272;9.580;2022-08-01T15:07:37;22.70;99.90
21167;DHT22;10741;52.272;9.580;2022-08-01T15:10:05;22.60;99.90
21167;DHT22;10741;52.272;9.580;2022-08-01T15:12:31;22.60;99.90
21167;DHT22;10741;52.272;9.580;2022-08-01T15:14:57;22.70;99.90
21167;DHT22;10741;52.272;9.580;2022-08-01T15:17:31;22.60;99.90
21167;DHT22;10741;52.272;9.580;2022-08-01T15:20:02;22.60;99.90
21167;DHT22;10741;52.272;9.580;2022-08-01T15:22:28;22.50;99.90
21167;DHT22;10741;52.272;9.580;2022-08-01T15:24:56;22.50;99.90
21167;DHT22;10741;52.272;9.580;2022-08-01T15:27:22;22.60;99.90
21167;DHT22;10741;52.272;9.580;2022-08-01T15:29:48;22.50;99.90
21167;DHT22;10741;52.272;9.580;2022-08-01T15:32:14;22.50;99.90
21167;DHT22;10741;52.272;9.580;2022-08-01T15:34:41;22.60;99.90
21167;DHT22;10741;52.272;9.580;2022-08-01T15:37:07;22.60;99.90
21167;DHT22;10741;52.272;9.580;2022-08-01T15:39:35;22.60;99.90
21167;DHT22;10741;52.272;9.580;2022-08-01T15:42:05;22.70;99.90
21167;DHT22;10741;52.272;9.580;2022-08-01T15:44:31;22.80;99.90
21167;DHT22;10741;52.272;9.580;2022-08-01T15:46:56;22.90;99.90
21167;DHT22;10741;52.272;9.580;2022-08-01T15:49:22;22.90;99.90
21167;DHT22;10741;52.272;9.580;2022-08-01T15:51:49;23.00;99.90
21167;DHT22;10741;52.272;9.580;2022-08-01T15:54:16;22.90;99.90
21167;DHT22;10741;52.272;9.580;2022-08-01T15:56:42;22.80;99.90
21167;DHT22;10741;52.272;9.580;2022-08-01T15:59:08;22.80;99.90
21167;DHT22;10741;52.272;9.580;2022-08-01T16:01:35;22.70;99.90
21167;DHT22;10741;52.272;9.580;2022-08-01T16:04:01;22.70;99.90
21167;DHT22;10741;52.272;9.580;2022-08-01T16:06:27;22.70;99.90
21167;DHT22;10741;52.272;9.580;2022-08-01T16:08:53;22.70;99.90
21167;DHT22;10741;52.272;9.580;2022-08-01T16:11:19;22.70;99.90
21167;DHT22;10741;52.272;9.580;2022-08-01T16:13:45;22.70;99.90
21167;DHT22;10741;52.272;9.580;2022-08-01T16:16:13;22.80;99.90
21167;DHT22;10741;52.272;9.580;2022-08-01T16:18:41;22.80;99.90
21167;DHT22;10741;52.272;9.580;2022-08-01T16:21:06;22.90;99.90
21167;DHT22;10741;52.272;9.580;2022-08-01T16:23:33;22.90;99.90
21167;DHT22;10741;52.272;9.580;2022-08-01T16:25:58;22.80;99.90
21167;DHT22;10741;52.272;9.580;2022-08-01T16:28:24;22.70;99.90